Time;durP1;ratioP1;P1;durP2;ratioP2;P2;SDS_P1;SDS_P2;PMS_P1;PMS_P2;Temp;Humidity;BMP_temperature;BMP_pressure;BME280_temperature;BME280_humidity;BME280_pressure;Samples;Min_cycle;Max_cycle;Signal;HPM_P1;HPM_P2
2022/04/08 00:01:22;;;;;;;2.73;1.30;;;10.20;98.10;;;;;;5144180;27;20729;-81
2022/04/08 00:03:49;;;;;;;4.87;0.90;;;10.60;98.30;;;;;;5140442;27;20978;-81
2022/04/08 00:06:17;;;;;;;4.57;1.90;;;10.20;98.40;;;;;;5146353;27;20769;-83
2022/04/08 00:08:45;;;;;;;4.80;1.80;;;10.60;98.90;;;;;;5146819;27;20617;-82
2022/04/08 00:11:12;;;;;;;8.20;1.70;;;10.40;97.40;;;;;;5140276;27;20664;-81
2022/04/08 00:13:38;;;;;;;4.77;2.10;;;10.10;97.30;;;;;;5144727;27;21265;-82
2022/04/08 00:16:07;;;;;;;2.80;1.93;;;10.20;97.40;;;;;;5141100;27;20617;-81
2022/04/08 00:18:34;;;;;;;3.53;1.30;;;10.20;97.40;;;;;;5138579;27;21178;-81
2022/04/08 00:21:01;;;;;;;6.30;1.33;;;9.90;97.90;;;;;;5145511;27;20636;-81
2022/04/08 00:23:29;;;;;;;5.93;2.03;;;10.30;97.50;;;;;;5138360;27;20629;-81
2022/04/08 00:25:56;;;;;;;7.07;2.37;;;9.90;97.20;;;;;;5139869;27;21215;-81
2022/04/08 00:28:22;;;;;;;4.70;1.43;;;9.90;97.10;;;;;;5148188;27;20629;-81
2022/04/08 00:30:49;;;;;;;7.03;2.23;;;10.10;96.80;;;;;;5141778;27;20661;-82
2022/04/08 00:33:16;;;;;;;4.00;1.43;;;10.00;96.80;;;;;;5145302;27;21249;-82
2022/04/08 00:35:43;;;;;;;3.40;1.70;;;9.80;96.60;;;;;;5141013;27;20629;-82
2022/04/08 00:38:09;;;;;;;3.57;1.50;;;10.10;96.40;;;;;;5136864;27;20637;-81
2022/04/08 00:40:39;;;;;;;3.70;1.50;;;10.00;96.10;;;;;;5143507;27;21662;-82
2022/04/08 00:43:13;;;;;;;5.10;1.97;;;9.90;95.60;;;;;;5136809;27;20618;-82
2022/04/08 00:45:40;;;;;;;5.20;1.67;;;10.30;95.60;;;;;;5134608;27;20678;-82
2022/04/08 00:48:08;;;;;;;5.20;1.80;;;10.00;95.40;;;;;;5138495;27;20922;-81
2022/04/08 00:50:35;;;;;;;7.60;1.50;;;10.20;95.60;;;;;;5144720;27;20746;-82
2022/04/08 00:53:02;;;;;;;3.70;1.67;;;9.70;96.40;;;;;;5143833;27;20757;-82
2022/04/08 00:55:29;;;;;;;3.93;1.47;;;10.00;96.10;;;;;;5145928;27;20619;-82
2022/04/08 00:58:01;;;;;;;3.00;1.30;;;10.20;96.30;;;;;;5137646;27;20629;-82
2022/04/08 01:00:32;;;;;;;4.37;1.53;;;10.10;96.60;;;;;;5139431;27;21106;-82
2022/04/08 01:02:59;;;;;;;5.80;1.87;;;10.40;96.70;;;;;;5138525;27;20610;-82
2022/04/08 01:05:26;;;;;;;5.07;1.57;;;10.30;96.90;;;;;;5138953;27;20939;-82
2022/04/08 01:07:54;;;;;;;5.10;1.50;;;10.20;97.20;;;;;;5143784;27;20963;-82
2022/04/08 01:10:21;;;;;;;3.07;1.60;;;10.30;97.20;;;;;;5141601;27;20648;-82
2022/04/08 01:12:49;;;;;;;4.87;2.00;;;10.40;97.70;;;;;;5136709;27;20657;-82
2022/04/08 01:15:17;;;;;;;3.53;1.60;;;9.80;98.00;;;;;;5137486;27;20704;-82
2022/04/08 01:17:44;;;;;;;7.80;2.10;;;9.70;97.70;;;;;;5137236;27;20643;-82
2022/04/08 01:20:12;;;;;;;3.23;1.30;;;10.30;97.60;;;;;;5139435;27;20719;-82
2022/04/08 01:22:39;;;;;;;4.80;1.50;;;9.70;98.10;;;;;;5141425;27;20619;-82
2022/04/08 01:25:09;;;;;;;4.40;1.57;;;10.10;97.70;;;;;;5135509;27;20629;-82
2022/04/08 01:27:36;;;;;;;5.90;2.07;;;10.10;97.90;;;;;;5145410;27;20632;-82
2022/04/08 01:30:04;;;;;;;5.80;1.63;;;10.10;97.80;;;;;;5139650;27;20736;-82
2022/04/08 01:32:31;;;;;;;4.03;1.60;;;10.10;98.00;;;;;;5138530;27;20663;-82
2022/04/08 01:34:58;;;;;;;4.40;1.50;;;10.10;97.80;;;;;;5144935;27;20994;-82
2022/04/08 01:37:25;;;;;;;4.30;1.60;;;9.70;98.40;;;;;;5138936;27;20630;-82
2022/04/08 01:39:52;;;;;;;5.33;2.60;;;10.00;97.60;;;;;;5142487;27;20736;-82
2022/04/08 01:42:23;;;;;;;5.90;2.23;;;9.90;97.70;;;;;;5144439;27;20622;-82
2022/04/08 01:44:50;;;;;;;3.27;1.47;;;9.60;97.50;;;;;;5138089;27;20618;-82
2022/04/08 01:47:17;;;;;;;1.70;1.03;;;10.00;97.50;;;;;;5139284;27;20985;-82
2022/04/08 01:49:43;;;;;;;4.40;1.70;;;9.70;97.90;;;;;;5138618;27;20655;-82
2022/04/08 01:52:10;;;;;;;2.20;1.20;;;9.90;98.00;;;;;;5144281;27;20644;-82
2022/04/08 01:54:37;;;;;;;4.70;1.23;;;10.10;97.50;;;;;;5135928;27;21198;-82
2022/04/08 01:57:04;;;;;;;6.07;1.50;;;10.00;97.20;;;;;;5141601;27;20618;-82
2022/04/08 01:59:33;;;;;;;5.20;2.47;;;10.00;97.30;;;;;;5139044;27;20655;-82
2022/04/08 02:02:00;;;;;;;4.53;1.50;;;9.90;98.00;;;;;;5139263;27;20662;-81
2022/04/08 02:04:27;;;;;;;3.80;1.60;;;10.10;97.80;;;;;;5143037;27;20649;-82
2022/04/08 02:06:54;;;;;;;3.80;1.50;;;10.00;98.10;;;;;;5142644;27;21012;-82
2022/04/08 02:09:21;;;;;;;4.83;1.77;;;10.00;98.10;;;;;;5138861;27;21172;-82
2022/04/08 02:11:48;;;;;;;4.83;1.30;;;10.20;98.50;;;;;;5140950;27;20616;-81
2022/04/08 02:14:15;;;;;;;2.40;1.60;;;9.50;98.60;;;;;;5142462;27;20669;-82
2022/04/08 02:16:43;;;;;;;2.23;1.63;;;10.10;98.40;;;;;;5135849;27;20723;-82
2022/04/08 02:19:09;;;;;;;3.83;1.20;;;9.80;98.90;;;;;;5145322;27;20625;-82
2022/04/08 02:21:36;;;;;;;7.50;1.47;;;9.90;99.20;;;;;;5147039;27;20652;-83
2022/04/08 02:24:04;;;;;;;5.77;1.90;;;9.80;98.30;;;;;;5138035;27;20643;-83
2022/04/08 02:26:31;;;;;;;3.40;1.30;;;9.90;98.50;;;;;;5144944;27;21155;-83
2022/04/08 02:28:59;;;;;;;8.47;1.87;;;9.90;98.30;;;;;;5136638;27;20626;-83
2022/04/08 02:31:26;;;;;;;7.70;2.23;;;9.60;98.50;;;;;;5141899;27;20645;-83
2022/04/08 02:33:54;;;;;;;4.37;1.70;;;9.40;98.20;;;;;;5146067;27;21251;-82
2022/04/08 02:36:21;;;;;;;6.53;1.70;;;9.70;98.20;;;;;;5149459;27;21044;-83
2022/04/08 02:38:48;;;;;;;6.77;2.90;;;9.70;98.50;;;;;;5147726;27;20977;-84
2022/04/08 02:41:14;;;;;;;5.00;2.10;;;9.70;98.50;;;;;;5143831;27;20661;-83
2022/04/08 02:43:41;;;;;;;4.77;1.80;;;9.20;98.60;;;;;;5141262;27;20614;-82
2022/04/08 02:46:08;;;;;;;6.73;2.63;;;9.20;98.70;;;;;;5138218;27;20632;-83
2022/04/08 02:48:35;;;;;;;3.73;2.40;;;9.30;99.00;;;;;;5144057;27;20640;-81
2022/04/08 02:51:03;;;;;;;4.80;1.97;;;9.80;99.40;;;;;;5143665;27;20739;-81
2022/04/08 02:53:29;;;;;;;4.20;1.83;;;9.10;99.00;;;;;;5149748;27;20653;-82
2022/04/08 02:55:56;;;;;;;2.83;2.17;;;9.20;99.10;;;;;;5140091;27;21208;-81
2022/04/08 02:58:23;;;;;;;3.03;1.87;;;9.70;99.80;;;;;;5142784;27;20629;-81
2022/04/08 03:00:50;;;;;;;4.93;2.17;;;9.20;99.60;;;;;;5142327;27;21167;-82
2022/04/08 03:03:16;;;;;;;3.87;1.80;;;9.80;99.80;;;;;;5144887;27;20629;-82
2022/04/08 03:05:43;;;;;;;4.80;1.90;;;9.60;99.90;;;;;;5147230;27;21263;-81
2022/04/08 03:08:11;;;;;;;3.43;2.00;;;9.70;99.90;;;;;;5143615;27;20617;-82
2022/04/08 03:10:38;;;;;;;3.00;2.20;;;9.60;99.90;;;;;;5142510;27;20648;-82
2022/04/08 03:13:05;;;;;;;4.43;1.97;;;9.30;99.90;;;;;;5144041;27;20667;-82
2022/04/08 03:15:31;;;;;;;5.20;2.00;;;9.80;99.90;;;;;;5145444;27;20621;-81
2022/04/08 03:17:58;;;;;;;4.07;1.80;;;9.50;99.90;;;;;;5140368;27;20629;-81
2022/04/08 03:20:25;;;;;;;4.70;1.87;;;9.50;99.90;;;;;;5149573;27;20660;-82
2022/04/08 03:22:52;;;;;;;7.33;2.30;;;9.70;99.90;;;;;;5141946;27;20662;-82
2022/04/08 03:25:20;;;;;;;4.90;1.80;;;9.60;99.90;;;;;;5142641;27;20618;-82
2022/04/08 03:27:47;;;;;;;4.27;2.50;;;9.70;99.90;;;;;;5141278;27;20626;-82
2022/04/08 03:30:14;;;;;;;5.03;2.40;;;9.60;99.90;;;;;;5142854;27;20654;-82
2022/04/08 03:32:41;;;;;;;6.57;2.00;;;9.60;99.90;;;;;;5145463;27;21191;-82
2022/04/08 03:35:08;;;;;;;3.43;2.03;;;9.70;99.70;;;;;;5141973;27;20633;-82
2022/04/08 03:37:35;;;;;;;3.93;2.50;;;9.60;99.20;;;;;;5138037;27;20700;-82
2022/04/08 03:40:02;;;;;;;7.20;2.13;;;9.10;98.90;;;;;;5144220;27;20676;-82
2022/04/08 03:42:30;;;;;;;4.00;2.10;;;9.60;99.00;;;;;;5140338;27;21062;-82
2022/04/08 03:44:57;;;;;;;7.23;2.50;;;9.20;98.80;;;;;;5144962;27;20618;-82
2022/04/08 03:47:23;;;;;;;5.33;2.00;;;9.10;98.90;;;;;;5145396;27;20612;-82
2022/04/08 03:49:50;;;;;;;6.70;2.43;;;9.60;99.00;;;;;;5139467;27;20730;-82
2022/04/08 03:52:17;;;;;;;3.97;2.33;;;9.50;98.40;;;;;;5138704;27;20625;-82
2022/04/08 03:54:44;;;;;;;4.37;2.63;;;9.00;98.20;;;;;;5146346;27;20737;-82
2022/04/08 03:57:10;;;;;;;3.77;2.20;;;9.00;98.00;;;;;;5148906;27;20631;-82
2022/04/08 03:59:38;;;;;;;5.57;2.33;;;9.30;98.30;;;;;;5141083;27;21267;-82
2022/04/08 04:02:07;;;;;;;3.70;2.27;;;9.00;98.40;;;;;;5142807;27;21199;-81
2022/04/08 04:04:34;;;;;;;6.93;2.30;;;9.50;98.80;;;;;;5143482;27;20678;-82
2022/04/08 04:07:00;;;;;;;5.40;2.50;;;9.20;98.60;;;;;;5143438;27;20638;-82
2022/04/08 04:09:27;;;;;;;4.03;2.30;;;9.30;98.60;;;;;;5138891;27;20619;-81
2022/04/08 04:11:54;;;;;;;4.87;2.93;;;9.30;98.50;;;;;;5143448;27;20637;-82
2022/04/08 04:14:21;;;;;;;7.70;3.80;;;8.90;98.40;;;;;;5143692;27;20653;-82
2022/04/08 04:16:49;;;;;;;3.57;2.10;;;8.90;98.10;;;;;;5141481;27;20625;-82
2022/04/08 04:19:16;;;;;;;6.03;2.80;;;9.40;98.40;;;;;;5139632;27;20977;-82
2022/04/08 04:21:44;;;;;;;4.43;2.47;;;8.80;98.00;;;;;;5144588;27;20990;-81
2022/04/08 04:24:11;;;;;;;6.83;2.30;;;8.80;97.80;;;;;;5137788;27;20622;-82
2022/04/08 04:26:38;;;;;;;5.03;2.23;;;9.40;98.10;;;;;;5142080;27;20997;-82
2022/04/08 04:29:05;;;;;;;5.50;2.50;;;9.20;97.80;;;;;;5141577;27;20634;-82
2022/04/08 04:31:32;;;;;;;6.87;2.83;;;9.10;97.70;;;;;;5142724;27;20660;-82
2022/04/08 04:34:00;;;;;;;4.30;1.90;;;9.20;97.70;;;;;;5143067;27;21247;-82
2022/04/08 04:36:27;;;;;;;5.03;2.43;;;8.80;97.50;;;;;;5146475;27;20617;-82
2022/04/08 04:38:54;;;;;;;4.60;2.17;;;9.00;97.40;;;;;;5147611;27;20652;-82
2022/04/08 04:41:21;;;;;;;6.90;1.90;;;8.70;97.20;;;;;;5144134;27;20658;-82
2022/04/08 04:43:47;;;;;;;3.20;2.07;;;9.30;97.80;;;;;;5142791;27;20641;-82
2022/04/08 04:46:14;;;;;;;6.40;1.50;;;9.00;97.70;;;;;;5139871;27;21227;-82
2022/04/08 04:48:41;;;;;;;5.70;2.17;;;9.10;97.70;;;;;;5144511;27;20621;-82
2022/04/08 04:51:11;;;;;;;4.37;1.90;;;8.90;97.90;;;;;;5143563;27;20657;-82
2022/04/08 04:53:38;;;;;;;5.13;1.93;;;9.20;98.20;;;;;;5138938;27;20653;-82
2022/04/08 04:56:05;;;;;;;5.23;2.17;;;8.70;98.10;;;;;;5145236;27;20619;-82
2022/04/08 04:58:32;;;;;;;5.33;1.93;;;9.30;98.50;;;;;;5140545;27;20621;-82
2022/04/08 05:00:59;;;;;;;7.87;2.10;;;8.90;98.30;;;;;;5143090;27;20665;-82
2022/04/08 05:03:25;;;;;;;7.47;1.90;;;9.20;98.50;;;;;;5140979;27;20625;-82
2022/04/08 05:05:53;;;;;;;5.93;1.93;;;8.70;98.50;;;;;;5138962;27;20609;-82
2022/04/08 05:08:21;;;;;;;4.83;2.27;;;9.10;98.80;;;;;;5139744;27;20682;-82
2022/04/08 05:10:48;;;;;;;9.83;2.00;;;8.80;98.60;;;;;;5139268;27;20645;-82
2022/04/08 05:13:18;;;;;;;6.83;2.20;;;8.90;99.00;;;;;;5142473;27;20625;-82
2022/04/08 05:15:45;;;;;;;4.00;2.20;;;9.10;99.10;;;;;;5136711;27;20614;-82
2022/04/08 05:18:13;;;;;;;5.30;2.33;;;9.10;99.30;;;;;;5139935;27;20610;-82
2022/04/08 05:20:39;;;;;;;5.67;1.60;;;8.60;99.20;;;;;;5136667;27;20717;-82
2022/04/08 05:23:06;;;;;;;4.70;2.17;;;8.90;99.00;;;;;;5137710;27;20707;-82
2022/04/08 05:25:34;;;;;;;8.30;3.27;;;9.00;98.80;;;;;;5139411;27;20621;-82
2022/04/08 05:28:01;;;;;;;5.40;2.40;;;9.50;99.10;;;;;;5134351;27;20661;-82
2022/04/08 05:30:28;;;;;;;4.10;1.93;;;9.50;99.20;;;;;;5136143;27;21119;-82
2022/04/08 05:32:56;;;;;;;4.50;2.07;;;9.30;99.20;;;;;;5140937;27;21101;-82
2022/04/08 05:35:22;;;;;;;6.90;2.40;;;8.90;98.30;;;;;;5143217;27;20669;-83
2022/04/08 05:37:50;;;;;;;5.57;3.37;;;9.10;98.60;;;;;;5141781;27;20622;-83
2022/04/08 05:40:18;;;;;;;5.03;3.37;;;9.40;99.00;;;;;;5139857;27;20645;-82
2022/04/08 05:42:47;;;;;;;10.10;3.20;;;9.30;99.60;;;;;;5142593;27;20629;-83
2022/04/08 05:45:16;;;;;;;6.63;2.70;;;9.50;99.40;;;;;;5141748;27;21020;-83
2022/04/08 05:47:44;;;;;;;3.90;1.77;;;9.40;99.50;;;;;;5141306;27;20624;-82
2022/04/08 05:50:11;;;;;;;5.30;3.00;;;9.10;98.60;;;;;;5139791;27;20641;-83
2022/04/08 05:52:37;;;;;;;6.73;2.33;;;9.40;98.80;;;;;;5139162;27;20878;-82
2022/04/08 05:55:05;;;;;;;7.60;2.20;;;9.30;99.10;;;;;;5140778;27;20658;-83
2022/04/08 05:57:35;;;;;;;6.80;2.53;;;9.60;99.20;;;;;;5132074;27;20629;-82
2022/04/08 06:00:05;;;;;;;6.87;2.07;;;9.20;98.80;;;;;;5142558;27;21002;-83
2022/04/08 06:02:32;;;;;;;4.83;1.67;;;9.30;98.90;;;;;;5145887;27;21009;-82
2022/04/08 06:04:59;;;;;;;5.10;1.80;;;9.40;99.00;;;;;;5137957;27;20630;-83
2022/04/08 06:07:25;;;;;;;4.87;1.90;;;9.10;99.30;;;;;;5140408;27;20618;-84
2022/04/08 06:09:52;;;;;;;3.50;1.20;;;9.50;99.90;;;;;;5144559;27;21175;-83
2022/04/08 06:12:19;;;;;;;8.37;2.00;;;9.40;99.90;;;;;;5142161;27;20622;-82
2022/04/08 06:14:45;;;;;;;6.33;1.87;;;9.60;99.90;;;;;;5140139;27;20665;-84
2022/04/08 06:17:14;;;;;;;3.87;1.50;;;9.70;99.90;;;;;;5142151;27;20632;-82
2022/04/08 06:19:45;;;;;;;4.20;1.27;;;9.60;99.90;;;;;;5141109;27;20625;-81
2022/04/08 06:22:11;;;;;;;3.63;1.77;;;9.50;99.90;;;;;;5142759;27;21186;-84
2022/04/08 06:24:38;;;;;;;5.27;1.63;;;9.90;99.90;;;;;;5143286;27;20613;-84
2022/04/08 06:27:05;;;;;;;3.53;1.70;;;9.80;99.90;;;;;;5146788;27;20636;-82
2022/04/08 06:29:32;;;;;;;3.77;2.20;;;9.30;99.90;;;;;;5142895;27;20628;-84
2022/04/08 06:31:59;;;;;;;4.43;1.70;;;9.50;99.90;;;;;;5136508;27;21411;-83
2022/04/08 06:34:27;;;;;;;5.17;1.90;;;9.60;99.90;;;;;;5148218;27;20653;-84
2022/04/08 06:36:54;;;;;;;6.80;1.60;;;9.70;99.90;;;;;;5143273;27;20628;-84
2022/04/08 06:39:21;;;;;;;7.10;1.90;;;9.50;99.90;;;;;;5139931;27;20625;-82
2022/04/08 06:41:47;;;;;;;7.07;1.53;;;9.50;99.90;;;;;;5142479;27;20656;-83
2022/04/08 06:44:14;;;;;;;3.40;1.40;;;9.40;99.90;;;;;;5148742;27;20912;-83
2022/04/08 06:46:41;;;;;;;3.77;1.63;;;9.50;99.90;;;;;;5141474;27;21168;-83
2022/04/08 06:49:07;;;;;;;3.40;1.60;;;9.20;99.90;;;;;;5141267;27;20628;-82
2022/04/08 06:51:35;;;;;;;5.97;1.50;;;9.60;99.90;;;;;;5144494;27;20675;-82
2022/04/08 06:54:02;;;;;;;4.70;1.40;;;9.50;99.90;;;;;;5137134;27;20653;-82
2022/04/08 06:56:29;;;;;;;6.43;2.57;;;9.50;99.90;;;;;;5141760;27;20630;-82
2022/04/08 06:58:56;;;;;;;6.13;1.83;;;9.00;99.90;;;;;;5142254;27;20673;-82
2022/04/08 07:01:25;;;;;;;3.60;1.53;;;9.40;99.90;;;;;;5143293;27;20665;-84
2022/04/08 07:03:52;;;;;;;3.67;1.63;;;9.40;99.90;;;;;;5145751;27;20624;-82
2022/04/08 07:06:18;;;;;;;1.97;1.30;;;9.20;99.90;;;;;;5145365;27;20636;-82
2022/04/08 07:08:46;;;;;;;3.60;1.30;;;9.20;99.90;;;;;;5141052;27;20648;-83
2022/04/08 07:11:13;;;;;;;4.27;1.50;;;9.50;99.90;;;;;;5142618;27;21001;-82
2022/04/08 07:13:41;;;;;;;4.30;1.57;;;9.60;99.90;;;;;;5142353;27;20678;-83
2022/04/08 07:16:08;;;;;;;2.73;1.00;;;9.30;99.90;;;;;;5140706;27;21182;-84
2022/04/08 07:18:35;;;;;;;4.00;1.97;;;9.20;99.90;;;;;;5139486;27;20946;-83
2022/04/08 07:21:02;;;;;;;2.63;1.77;;;9.00;99.90;;;;;;5142165;27;20657;-81
2022/04/08 07:23:28;;;;;;;2.80;1.50;;;9.20;99.90;;;;;;5142718;27;20637;-84
2022/04/08 07:25:58;;;;;;;4.47;1.70;;;9.30;99.90;;;;;;5143399;27;20630;-83
2022/04/08 07:28:25;;;;;;;3.60;1.50;;;9.20;99.90;;;;;;5146429;27;20617;-83
2022/04/08 07:30:51;;;;;;;4.07;1.60;;;8.70;99.90;;;;;;5140484;27;20665;-83
2022/04/08 07:33:18;;;;;;;4.60;1.80;;;9.10;99.90;;;;;;5136710;27;20645;-82
2022/04/08 07:35:45;;;;;;;6.13;2.00;;;9.10;99.90;;;;;;5145274;27;20684;-82
2022/04/08 07:38:12;;;;;;;2.60;1.50;;;9.30;99.90;;;;;;5132960;27;20610;-81
2022/04/08 07:40:39;;;;;;;2.23;1.10;;;8.90;99.90;;;;;;5136564;27;20648;-81
2022/04/08 07:43:07;;;;;;;4.10;1.70;;;8.90;99.90;;;;;;5130165;27;20846;-81
2022/04/08 07:45:34;;;;;;;3.33;1.27;;;8.40;99.90;;;;;;5138703;27;20648;-81
2022/04/08 07:48:01;;;;;;;1.20;0.90;;;9.10;99.90;;;;;;5130457;27;20626;-81
2022/04/08 07:50:29;;;;;;;3.40;1.93;;;8.90;99.90;;;;;;5145559;27;21202;-81
2022/04/08 07:52:55;;;;;;;2.03;1.13;;;8.80;99.90;;;;;;5141803;27;20634;-81
2022/04/08 07:55:24;;;;;;;3.77;1.50;;;8.70;99.90;;;;;;5143357;27;20697;-81
2022/04/08 07:57:52;;;;;;;8.20;3.00;;;8.60;99.90;;;;;;5141430;27;20624;-81
2022/04/08 08:00:25;;;;;;;4.10;1.67;;;8.40;99.90;;;;;;5139541;27;20657;-81
2022/04/08 08:02:52;;;;;;;3.77;3.30;;;8.80;99.90;;;;;;5142097;27;20728;-81
2022/04/08 08:05:20;;;;;;;2.70;1.10;;;8.60;99.90;;;;;;5145699;27;20622;-81
2022/04/08 08:07:50;;;;;;;2.47;0.90;;;8.60;99.90;;;;;;5135438;27;20612;-80
2022/04/08 08:10:18;;;;;;;3.63;1.80;;;8.50;99.90;;;;;;5143680;27;20820;-81
2022/04/08 08:12:45;;;;;;;3.90;1.70;;;8.70;99.90;;;;;;5141654;27;20626;-81
2022/04/08 08:15:12;;;;;;;3.43;1.30;;;8.90;99.90;;;;;;5144217;27;20665;-81
2022/04/08 08:17:40;;;;;;;2.77;1.10;;;9.00;99.90;;;;;;5139742;27;20963;-81
2022/04/08 08:20:09;;;;;;;2.63;1.20;;;9.10;99.90;;;;;;5140720;27;20653;-81
2022/04/08 08:22:36;;;;;;;2.13;1.00;;;9.10;99.90;;;;;;5144263;27;20707;-81
2022/04/08 08:25:03;;;;;;;3.67;1.30;;;9.30;99.90;;;;;;5141136;27;21069;-81
2022/04/08 08:27:38;;;;;;;0.97;0.70;;;9.00;99.90;;;;;;5147249;27;21026;-81
2022/04/08 08:30:06;;;;;;;1.00;0.80;;;9.00;99.90;;;;;;5139832;27;20644;-81
2022/04/08 08:32:32;;;;;;;2.77;0.97;;;9.10;99.90;;;;;;5141686;27;20949;-81
2022/04/08 08:35:01;;;;;;;1.47;0.73;;;8.70;99.90;;;;;;5142014;27;20830;-81
2022/04/08 08:37:28;;;;;;;2.60;1.23;;;8.50;99.90;;;;;;5141360;27;20618;-82
2022/04/08 08:39:56;;;;;;;1.43;1.17;;;9.30;99.90;;;;;;5143613;27;20630;-82
2022/04/08 08:42:24;;;;;;;2.47;1.17;;;9.20;99.90;;;;;;5144186;27;20740;-81
2022/04/08 08:44:51;;;;;;;3.53;1.30;;;9.50;99.90;;;;;;5143881;27;20629;-81
2022/04/08 08:47:19;;;;;;;1.77;1.10;;;9.00;99.90;;;;;;5144090;27;20621;-81
2022/04/08 08:49:50;;;;;;;1.73;0.87;;;9.10;99.90;;;;;;5142420;27;20616;-81
2022/04/08 08:52:19;;;;;;;4.93;0.77;;;8.50;99.90;;;;;;5142801;27;21170;-81
2022/04/08 08:54:46;;;;;;;1.80;0.90;;;9.00;99.90;;;;;;5145375;27;20661;-81
2022/04/08 08:57:16;;;;;;;2.90;0.90;;;8.70;99.90;;;;;;5140963;27;20626;-81
2022/04/08 08:59:44;;;;;;;1.70;0.73;;;8.90;99.90;;;;;;5141945;27;20625;-81
2022/04/08 09:02:11;;;;;;;3.20;1.17;;;8.70;99.90;;;;;;5145215;27;20860;-81
2022/04/08 09:04:41;;;;;;;2.50;1.27;;;9.00;99.90;;;;;;5143428;27;20625;-81
2022/04/08 09:07:09;;;;;;;2.30;1.53;;;9.30;99.90;;;;;;5145991;27;20962;-81
2022/04/08 09:09:37;;;;;;;1.30;0.80;;;8.90;99.90;;;;;;5142782;27;20632;-81
2022/04/08 09:12:12;;;;;;;1.67;0.90;;;9.50;99.90;;;;;;5144310;27;20684;-79
2022/04/08 09:14:39;;;;;;;2.13;1.00;;;9.30;99.90;;;;;;5139878;27;21120;-80
2022/04/08 09:17:06;;;;;;;1.27;1.10;;;9.20;99.90;;;;;;5142775;27;20627;-80
2022/04/08 09:19:34;;;;;;;2.30;1.40;;;9.10;99.90;;;;;;5136806;27;20629;-80
2022/04/08 09:22:01;;;;;;;3.73;1.50;;;8.70;99.90;;;;;;5140546;27;20666;-80
2022/04/08 09:24:28;;;;;;;1.60;1.20;;;9.10;99.90;;;;;;5145313;27;21111;-80
2022/04/08 09:26:57;;;;;;;2.27;1.00;;;9.10;99.90;;;;;;5134443;27;20633;-81
2022/04/08 09:29:24;;;;;;;2.80;0.90;;;9.30;99.90;;;;;;5130618;27;20618;-80
2022/04/08 09:31:52;;;;;;;1.60;1.07;;;9.40;99.90;;;;;;5138285;27;20791;-80
2022/04/08 09:34:21;;;;;;;1.57;0.97;;;8.90;99.90;;;;;;5138945;27;20645;-80
2022/04/08 09:36:48;;;;;;;3.50;1.60;;;9.10;99.90;;;;;;5136935;27;20653;-80
2022/04/08 09:39:16;;;;;;;2.43;1.50;;;9.30;99.90;;;;;;5143715;27;20621;-80
2022/04/08 09:41:44;;;;;;;1.47;0.97;;;9.30;99.90;;;;;;5136707;27;20640;-80
2022/04/08 09:44:14;;;;;;;2.60;1.40;;;9.10;99.90;;;;;;5134789;27;20625;-80
2022/04/08 09:46:42;;;;;;;2.30;1.10;;;9.20;99.90;;;;;;5131076;27;21184;-80
2022/04/08 09:49:09;;;;;;;1.27;1.03;;;8.70;99.90;;;;;;5140868;27;20609;-80
2022/04/08 09:51:38;;;;;;;2.07;1.30;;;8.70;99.90;;;;;;5141731;27;21235;-80
2022/04/08 09:54:07;;;;;;;2.57;1.40;;;9.00;99.90;;;;;;5140564;27;20976;-80
2022/04/08 09:56:35;;;;;;;2.83;0.70;;;9.20;99.90;;;;;;5141631;27;20651;-80
2022/04/08 09:59:05;;;;;;;0.80;0.80;;;8.90;99.90;;;;;;5139322;27;20630;-81
2022/04/08 10:01:36;;;;;;;1.27;0.87;;;9.40;99.90;;;;;;5141242;27;20656;-80
2022/04/08 10:04:04;;;;;;;1.40;0.90;;;9.00;99.90;;;;;;5140858;27;21358;-80
2022/04/08 10:06:31;;;;;;;1.13;1.03;;;9.50;99.90;;;;;;5141640;27;20625;-80
2022/04/08 10:08:59;;;;;;;0.83;0.50;;;9.40;99.90;;;;;;5137925;27;20610;-80
2022/04/08 10:11:35;;;;;;;1.07;0.67;;;9.50;99.90;;;;;;5142714;27;20648;-80
2022/04/08 10:14:14;;;;;;;0.80;0.60;;;9.50;99.90;;;;;;5132064;27;20976;-81
2022/04/08 10:16:43;;;;;;;1.33;0.67;;;9.60;99.90;;;;;;5136680;27;21230;-81
2022/04/08 10:19:13;;;;;;;0.60;0.57;;;9.10;99.90;;;;;;5136872;27;20613;-81
2022/04/08 10:21:40;;;;;;;1.77;1.13;;;9.10;99.90;;;;;;5142014;27;20662;-81
2022/04/08 10:24:13;;;;;;;1.33;0.83;;;9.10;99.90;;;;;;5140782;27;20635;-81
2022/04/08 10:26:56;;;;;;;1.30;0.80;;;9.80;99.90;;;;;;5138401;27;21569;-81
2022/04/08 10:29:23;;;;;;;1.13;0.73;;;9.70;99.90;;;;;;5142173;27;21175;-82
2022/04/08 10:31:58;;;;;;;1.87;1.53;;;9.90;99.90;;;;;;5142158;27;20649;-81
2022/04/08 10:34:26;;;;;;;0.80;0.80;;;9.40;99.90;;;;;;5146121;27;20635;-81
2022/04/08 10:36:53;;;;;;;1.53;1.43;;;9.80;99.90;;;;;;5142611;27;20663;-80
2022/04/08 10:39:21;;;;;;;1.63;0.90;;;9.50;99.90;;;;;;5144557;27;20637;-80
2022/04/08 10:41:50;;;;;;;1.00;0.60;;;9.40;99.90;;;;;;5141772;27;20723;-81
2022/04/08 10:44:18;;;;;;;1.20;0.83;;;9.80;99.90;;;;;;5136644;27;20643;-82
2022/04/08 10:46:52;;;;;;;0.50;0.50;;;9.80;99.90;;;;;;5142827;27;20637;-82
2022/04/08 10:49:20;;;;;;;0.90;0.77;;;9.40;99.90;;;;;;5144963;27;20645;-82
2022/04/08 10:51:48;;;;;;;1.63;0.83;;;9.40;99.90;;;;;;5148002;27;20645;-80
2022/04/08 10:54:16;;;;;;;2.80;1.50;;;9.30;99.90;;;;;;5146397;27;21163;-82
2022/04/08 10:56:43;;;;;;;2.33;0.50;;;9.60;99.90;;;;;;5148539;27;20741;-80
2022/04/08 10:59:10;;;;;;;1.27;0.50;;;9.70;99.90;;;;;;5134766;27;20641;-83
2022/04/08 11:01:45;;;;;;;0.90;0.70;;;9.80;99.90;;;;;;5141851;27;20667;-82
2022/04/08 11:04:12;;;;;;;1.80;0.50;;;9.80;99.90;;;;;;5134160;27;21024;-82
2022/04/08 11:06:41;;;;;;;1.30;0.90;;;9.90;99.90;;;;;;5147627;27;20617;-82
2022/04/08 11:09:09;;;;;;;1.67;0.90;;;9.50;99.90;;;;;;5142123;27;21184;-82
2022/04/08 11:11:38;;;;;;;1.97;1.27;;;10.00;99.90;;;;;;5140134;27;20652;-82
2022/04/08 11:14:06;;;;;;;1.07;0.80;;;9.70;99.90;;;;;;5142028;27;20617;-82
2022/04/08 11:16:34;;;;;;;1.37;0.60;;;10.10;99.90;;;;;;5138760;27;20661;-82
2022/04/08 11:19:03;;;;;;;1.43;1.00;;;9.80;99.90;;;;;;5136131;27;20722;-82
2022/04/08 11:21:30;;;;;;;0.80;0.73;;;9.90;99.90;;;;;;5139657;27;21402;-81
2022/04/08 11:24:00;;;;;;;1.03;0.70;;;9.60;99.90;;;;;;5137682;27;20958;-82
2022/04/08 11:26:28;;;;;;;1.03;0.57;;;9.90;99.90;;;;;;5141688;27;20630;-82
2022/04/08 11:28:55;;;;;;;1.27;0.90;;;9.40;99.90;;;;;;5142840;27;20648;-82
2022/04/08 11:31:22;;;;;;;2.00;0.87;;;9.70;99.90;;;;;;5145784;27;20710;-82
2022/04/08 11:33:48;;;;;;;1.10;1.10;;;9.90;99.90;;;;;;5151801;27;20609;-81
2022/04/08 11:36:22;;;;;;;0.67;0.67;;;9.80;99.90;;;;;;5144917;27;20643;-81
2022/04/08 11:38:49;;;;;;;0.87;0.60;;;9.20;99.90;;;;;;5144651;27;20617;-81
2022/04/08 11:41:21;;;;;;;1.23;0.93;;;9.10;99.90;;;;;;5141906;27;21086;-81
2022/04/08 11:43:48;;;;;;;2.73;1.00;;;9.30;99.90;;;;;;5140974;27;20621;-81
2022/04/08 11:46:16;;;;;;;1.37;0.73;;;9.30;99.90;;;;;;5144626;27;21010;-81
2022/04/08 11:48:43;;;;;;;2.83;0.83;;;9.00;99.90;;;;;;5145229;27;20614;-81
2022/04/08 11:51:10;;;;;;;0.97;0.70;;;9.10;99.90;;;;;;5145087;27;20646;-82
2022/04/08 11:53:44;;;;;;;0.70;0.50;;;9.30;99.90;;;;;;5138514;27;20612;-81
2022/04/08 11:56:11;;;;;;;2.10;0.60;;;9.30;99.90;;;;;;5142107;27;20689;-81
2022/04/08 11:58:40;;;;;;;1.13;0.87;;;9.50;99.90;;;;;;5137926;27;20646;-82
2022/04/08 12:01:08;;;;;;;0.97;0.97;;;9.20;99.90;;;;;;5137478;27;21533;-82
2022/04/08 12:03:36;;;;;;;1.17;0.70;;;9.10;99.90;;;;;;5140757;27;21010;-82
2022/04/08 12:06:04;;;;;;;1.10;0.93;;;9.30;99.90;;;;;;5142645;27;20621;-81
2022/04/08 12:08:31;;;;;;;2.73;0.90;;;9.70;99.90;;;;;;5142151;27;20980;-83
2022/04/08 12:10:59;;;;;;;1.57;0.80;;;9.50;99.90;;;;;;5141762;27;20648;-81
2022/04/08 12:13:27;;;;;;;1.90;1.03;;;9.40;99.90;;;;;;5147631;27;20617;-81
2022/04/08 12:15:58;;;;;;;1.57;1.10;;;9.60;99.90;;;;;;5127278;27;21118;-81
2022/04/08 12:18:32;;;;;;;1.73;1.20;;;9.70;99.90;;;;;;5132744;27;20655;-81
2022/04/08 12:21:00;;;;;;;1.23;0.90;;;9.70;99.90;;;;;;5144830;27;20661;-81
2022/04/08 12:23:28;;;;;;;1.93;0.90;;;9.60;99.90;;;;;;5138493;27;20626;-81
2022/04/08 12:25:57;;;;;;;2.27;1.10;;;9.20;99.90;;;;;;5138810;27;21242;-81
2022/04/08 12:28:25;;;;;;;1.63;1.20;;;9.70;99.90;;;;;;5137339;27;20617;-81
2022/04/08 12:30:52;;;;;;;1.97;1.10;;;9.50;99.90;;;;;;5140925;27;20661;-81
2022/04/08 12:33:20;;;;;;;1.60;1.07;;;9.50;99.90;;;;;;5139071;27;20621;-81
2022/04/08 12:35:47;;;;;;;3.63;1.17;;;9.60;99.90;;;;;;5147134;27;20657;-81
2022/04/08 12:38:19;;;;;;;1.73;1.07;;;9.50;99.90;;;;;;5147102;27;20613;-81
2022/04/08 12:40:46;;;;;;;1.27;1.00;;;9.50;99.90;;;;;;5140734;27;20649;-82
2022/04/08 12:43:13;;;;;;;0.80;0.80;;;9.80;99.90;;;;;;5141565;27;20617;-82
2022/04/08 12:45:40;;;;;;;1.20;1.07;;;9.20;99.90;;;;;;5142626;27;20613;-82
2022/04/08 12:48:08;;;;;;;1.70;0.80;;;9.50;99.90;;;;;;5146519;27;20629;-81
2022/04/08 12:50:36;;;;;;;1.30;1.20;;;9.50;99.90;;;;;;5142269;27;20740;-81
2022/04/08 12:53:03;;;;;;;1.17;1.07;;;9.30;99.90;;;;;;5149737;27;20613;-83
2022/04/08 12:55:30;;;;;;;2.23;0.90;;;9.60;99.90;;;;;;5146298;27;20613;-80
2022/04/08 12:57:57;;;;;;;0.83;0.80;;;9.70;99.90;;;;;;5144016;27;20633;-81